Portada
METAR-TAF:

METAR-TAF

Aeroports :

Uberlândia, Minas Gerais, Brasil

latitud: 18-53S, longitud: 048-14W, altitud: 943 m

Observació

L'informe es va fer fa 1 hora i 3 minuts, a les 18:00 UTC
Vent 8 kt del Nord-Est
Temperatura 35°C
Humitat 13%
Pressió 1016 hPa
Visibilitat 10 km o més
sense núvols per sota de 1500 mi sense presència de cumulonimbus.

METAR: SBUL 291800Z 04008KT CAVOK 35/02 Q1016

Hora: 16:03 (19:03 UTC)

Pronòstic

L'informe es va fer fa 3 hores i 0 minuts, a les 16:03 UTC
Pronòstic vàlid del 29 a les 18 UTC al 30 a les 06 UTC
Vent 5 kt del Est/Nord-Est
Visibilitat 10 km o més
sense núvols per sota de 1500 mi sense presència de cumulonimbus.

TAF: SBUL 291603Z 2918/3006 07005KT CAVOK TX37/2918Z TN26/3005Z RMK PHM

Observacions i pronòstics meteorològics de més de 4000 aeroports (METAR i TAF).

Les estacions disponibles són els punts grocs i vermells al mapa.

Posi el ratolí al punt desitjat per veure el nom de l'estació.

Feu clic per veure les observacions i els pronòstics meteorològics.

Per canviar el mapa: feu clic els botons verds amb una creu de color negre per apropar; al botó verd amb un guió per allunyar la imatge; o en les fletxes verdes per a mapes adjacents.


METAR-TAF: